createdAt,value
2018-04-11T00:00:12.248Z,96922.84
2018-04-11T00:02:40.514Z,96911.55
2018-04-11T00:05:08.799Z,96908.74
2018-04-11T00:07:37.084Z,96906.00
2018-04-11T00:10:05.656Z,96905.34
2018-04-11T00:12:33.923Z,96908.86
2018-04-11T00:15:02.214Z,96910.70
2018-04-11T00:17:30.527Z,96909.86
2018-04-11T00:19:58.839Z,96906.00
2018-04-11T00:22:27.157Z,96909.99
2018-04-11T00:24:55.439Z,96915.52
2018-04-11T00:27:23.775Z,96935.41
2018-04-11T00:29:52.838Z,96941.68
2018-04-11T00:32:21.128Z,96935.45
2018-04-11T00:34:50.187Z,96934.26
2018-04-11T00:37:18.464Z,96936.66
2018-04-11T00:39:46.767Z,96948.78
2018-04-11T00:42:15.035Z,96950.17
2018-04-11T00:44:43.306Z,96939.81
2018-04-11T00:47:11.599Z,96940.78
2018-04-11T00:49:39.884Z,96945.64
2018-04-11T00:52:08.950Z,96940.75
2018-04-11T00:54:37.212Z,96943.19
2018-04-11T00:57:05.512Z,96937.08
2018-04-11T00:59:33.780Z,96936.02
2018-04-11T01:02:02.082Z,96942.16
2018-04-11T01:04:31.129Z,96939.91
2018-04-11T01:06:59.433Z,96935.69
2018-04-11T01:09:27.697Z,96938.17
2018-04-11T01:11:56.012Z,96943.73
2018-04-11T01:14:25.054Z,96940.48
2018-04-11T01:16:53.399Z,96932.22
2018-04-11T01:19:21.679Z,96924.38
2018-04-11T01:21:49.972Z,96922.51
2018-04-11T01:24:18.242Z,96919.63
2018-04-11T01:26:46.567Z,96929.43
2018-04-11T01:29:14.807Z,96916.99
2018-04-11T01:31:43.092Z,96914.42
2018-04-11T01:34:11.447Z,96914.73
2018-04-11T01:36:39.800Z,96899.72
2018-04-11T01:39:09.022Z,96905.56
2018-04-11T01:41:37.396Z,96908.34
2018-04-11T01:44:05.734Z,96907.67
2018-04-11T01:46:34.878Z,96895.73
2018-04-11T01:49:03.222Z,96894.55
2018-04-11T01:51:32.375Z,96903.35
2018-04-11T01:54:00.671Z,96898.70
2018-04-11T01:56:28.972Z,96906.26
2018-04-11T01:58:57.323Z,96911.78
2018-04-11T02:01:25.592Z,96917.73
2018-04-11T02:03:53.879Z,96913.30
2018-04-11T02:06:22.162Z,96927.49
2018-04-11T02:08:50.447Z,96928.23
2018-04-11T02:11:18.725Z,96932.70
2018-04-11T02:13:47.021Z,96926.28
2018-04-11T02:16:15.314Z,96930.16
2018-04-11T02:18:43.615Z,96932.44
2018-04-11T02:21:11.894Z,96940.98
2018-04-11T02:23:40.182Z,96938.36
2018-04-11T02:26:08.471Z,96936.59
2018-04-11T02:28:36.762Z,96939.36
2018-04-11T02:31:05.815Z,96938.16
2018-04-11T02:33:34.098Z,96939.25
2018-04-11T02:36:02.403Z,96936.39
2018-04-11T02:38:30.694Z,96935.53
2018-04-11T02:40:59.736Z,96937.87
2018-04-11T02:43:28.021Z,96942.67
2018-04-11T02:45:56.311Z,96945.11
2018-04-11T02:48:24.603Z,96952.25
2018-04-11T02:50:52.939Z,96955.30
2018-04-11T02:53:22.321Z,96954.16
2018-04-11T02:55:50.610Z,96950.77
2018-04-11T02:58:18.888Z,96950.47
2018-04-11T03:00:47.175Z,96957.48
2018-04-11T03:03:15.451Z,96953.95
2018-04-11T03:05:43.756Z,96951.53
2018-04-11T03:08:12.030Z,96954.17
2018-04-11T03:10:41.115Z,96960.89
2018-04-11T03:13:10.147Z,96961.20
2018-04-11T03:15:39.198Z,96950.16
2018-04-11T03:18:07.468Z,96945.70
2018-04-11T03:20:35.761Z,96945.31
2018-04-11T03:23:04.024Z,96942.75
2018-04-11T03:25:32.325Z,96943.65
2018-04-11T03:28:00.607Z,96936.66
2018-04-11T03:30:28.956Z,96936.06
2018-04-11T03:32:57.223Z,96931.97
2018-04-11T03:35:25.566Z,96936.36
2018-04-11T03:37:53.871Z,96940.19
2018-04-11T03:40:22.151Z,96947.17
2018-04-11T03:42:50.432Z,96951.70
2018-04-11T03:45:18.760Z,96954.05
2018-04-11T03:47:47.806Z,96958.43
2018-04-11T03:50:16.095Z,96962.67
2018-04-11T03:52:44.376Z,96967.56
2018-04-11T03:55:12.671Z,96965.98
2018-04-11T03:57:40.968Z,96966.34
2018-04-11T04:00:09.231Z,96967.08
2018-04-11T04:02:38.298Z,96964.45
2018-04-11T04:05:06.582Z,96964.86
2018-04-11T04:07:34.945Z,96968.95
2018-04-11T04:10:03.213Z,96968.53
2018-04-11T04:12:32.270Z,96973.90
2018-04-11T04:15:18.217Z,96978.14
2018-04-11T04:18:04.479Z,96982.55
2018-04-11T04:20:37.675Z,96981.77
2018-04-11T04:23:05.975Z,96975.23
2018-04-11T04:25:34.281Z,96979.96
2018-04-11T04:28:03.475Z,96980.21
2018-04-11T04:30:32.525Z,96978.55
2018-04-11T04:33:00.861Z,96984.11
2018-04-11T04:35:29.944Z,96987.27
2018-04-11T04:37:59.085Z,96987.05
2018-04-11T04:40:27.442Z,96992.67
2018-04-11T04:42:55.831Z,96991.66
2018-04-11T04:45:24.201Z,96997.13
2018-04-11T04:47:52.626Z,96997.55
2018-04-11T04:50:21.007Z,96996.01
2018-04-11T04:52:49.361Z,96990.13
2018-04-11T04:55:19.257Z,96997.58
2018-04-11T04:57:47.625Z,97001.70
2018-04-11T05:00:15.979Z,97000.66
2018-04-11T05:02:45.137Z,96999.37
2018-04-11T05:05:13.480Z,97000.44
2018-04-11T05:07:41.867Z,97005.82
2018-04-11T05:10:10.219Z,97005.75
2018-04-11T05:12:38.590Z,97012.00
2018-04-11T05:15:07.667Z,97016.27
2018-04-11T05:17:35.949Z,97018.76
2018-04-11T05:20:04.263Z,97012.77
2018-04-11T05:22:32.540Z,97020.70
2018-04-11T05:25:00.892Z,97015.14
2018-04-11T05:27:29.162Z,97015.31
2018-04-11T05:29:57.447Z,97018.34
2018-04-11T05:32:26.483Z,97020.94
2018-04-11T05:34:54.767Z,97020.73
2018-04-11T05:37:23.041Z,97018.41
2018-04-11T05:39:51.323Z,97016.02
2018-04-11T05:42:19.595Z,97028.11
2018-04-11T05:44:47.897Z,97031.03
2018-04-11T05:47:16.164Z,97031.39
2018-04-11T05:49:45.252Z,97037.91
2018-04-11T05:52:13.572Z,97033.14
2018-04-11T05:54:42.622Z,97036.83
2018-04-11T05:57:10.903Z,97043.97
2018-04-11T05:59:39.191Z,97049.64
2018-04-11T06:02:07.462Z,97052.42
2018-04-11T06:04:35.749Z,97051.22
2018-04-11T06:07:04.039Z,97049.21
2018-04-11T06:09:32.347Z,97053.91
2018-04-11T06:12:00.689Z,97046.14
2018-04-11T06:14:28.994Z,97049.73
2018-04-11T06:16:57.310Z,97050.47
2018-04-11T06:19:25.598Z,97053.91
2018-04-11T06:21:53.887Z,97062.99
2018-04-11T06:24:22.157Z,97063.72
2018-04-11T06:26:50.493Z,97058.99
2018-04-11T06:29:18.847Z,97058.29
2018-04-11T06:31:47.919Z,97058.50
2018-04-11T06:34:16.186Z,97065.16
2018-04-11T06:36:44.499Z,97062.84
2018-04-11T06:39:13.536Z,97067.09
2018-04-11T06:41:41.823Z,97071.72
2018-04-11T06:44:10.086Z,97068.66
2018-04-11T06:46:38.378Z,97075.98
2018-04-11T06:49:06.654Z,97075.20
2018-04-11T06:51:34.967Z,97072.88
2018-04-11T06:54:04.011Z,97070.19
2018-04-11T06:56:32.315Z,97082.05
2018-04-11T06:59:00.581Z,97083.80
2018-04-11T07:01:28.925Z,97087.20
2018-04-11T07:03:57.156Z,97086.53
2018-04-11T07:06:25.456Z,97086.25
2018-04-11T07:08:54.498Z,97090.63
2018-04-11T07:11:22.782Z,97091.05
2018-04-11T07:13:51.047Z,97091.23
2018-04-11T07:16:19.336Z,97091.45
2018-04-11T07:18:47.604Z,97089.74
2018-04-11T07:21:15.903Z,97094.34
2018-04-11T07:23:44.199Z,97090.64
2018-04-11T07:26:13.241Z,97099.38
2018-04-11T07:28:41.523Z,97100.81
2018-04-11T07:31:09.799Z,97104.55
2018-04-11T07:33:38.086Z,97103.55
2018-04-11T07:36:07.187Z,97101.86
2018-04-11T07:38:36.275Z,97108.62
2018-04-11T07:41:04.573Z,97112.41
2018-04-11T07:43:32.861Z,97113.64
2018-04-11T07:46:01.974Z,97121.03
2018-04-11T07:48:30.212Z,97114.90
2018-04-11T07:50:58.510Z,97114.95
2018-04-11T07:53:27.565Z,97118.88
2018-04-11T07:55:55.852Z,97124.56
2018-04-11T07:58:24.135Z,97130.50
2018-04-11T08:00:52.413Z,97132.03
2018-04-11T08:03:20.784Z,97136.20
2018-04-11T08:05:49.012Z,97135.62
2018-04-11T08:08:17.296Z,97135.70
2018-04-11T08:10:45.560Z,97130.47
2018-04-11T08:13:13.836Z,97127.31
2018-04-11T08:15:42.114Z,97136.03
2018-04-11T08:18:10.442Z,97123.41
2018-04-11T08:20:38.663Z,97130.81
2018-04-11T08:23:06.945Z,97131.53
2018-04-11T08:25:35.299Z,97127.82
2018-04-11T08:28:04.343Z,97134.87
2018-04-11T08:30:33.955Z,97125.00
2018-04-11T08:33:02.227Z,97139.38
2018-04-11T08:35:30.520Z,97138.22
2018-04-11T08:37:58.802Z,97136.59
2018-04-11T08:40:27.084Z,97141.81
2018-04-11T08:42:55.343Z,97142.96
2018-04-11T08:45:23.648Z,97142.49
2018-04-11T08:47:51.917Z,97143.64
2018-04-11T08:50:20.270Z,97153.19
2018-04-11T08:52:48.565Z,97151.91
2018-04-11T08:55:16.839Z,97157.48
2018-04-11T08:57:45.116Z,97163.76
2018-04-11T09:00:13.412Z,97163.28
2018-04-11T09:02:42.474Z,97166.59
2018-04-11T09:05:10.755Z,97166.27
2018-04-11T09:07:39.039Z,97161.78
2018-04-11T09:10:07.353Z,97165.28
2018-04-11T09:12:36.406Z,97163.66
2018-04-11T09:15:04.695Z,97163.27
2018-04-11T09:17:32.972Z,97174.42
2018-04-11T09:20:01.256Z,97163.28
2018-04-11T09:22:29.570Z,97169.47
2018-04-11T09:24:57.876Z,97169.08
2018-04-11T09:27:26.144Z,97169.74
2018-04-11T09:29:54.437Z,97171.77
2018-04-11T09:32:22.711Z,97168.94
2018-04-11T09:34:51.045Z,97171.63
2018-04-11T09:37:19.365Z,97170.19
2018-04-11T09:39:47.648Z,97176.92
2018-04-11T09:42:15.944Z,97173.64
2018-04-11T09:44:44.215Z,97172.20
2018-04-11T09:47:12.507Z,97179.08
2018-04-11T09:49:41.538Z,97177.95
2018-04-11T09:52:09.822Z,97178.17
2018-04-11T09:54:38.079Z,97179.17
2018-04-11T09:57:06.366Z,97177.30
2018-04-11T09:59:34.649Z,97180.94
2018-04-11T10:02:06.770Z,97177.88
2018-04-11T10:04:35.805Z,97176.67
2018-04-11T10:07:04.091Z,97170.13
2018-04-11T10:09:32.374Z,97172.72
2018-04-11T10:12:00.695Z,97174.43
2018-04-11T10:14:29.736Z,97177.73
2018-04-11T10:16:58.030Z,97175.44
2018-04-11T10:19:26.301Z,97171.55
2018-04-11T10:21:54.579Z,97170.22
2018-04-11T10:24:22.835Z,97175.81
2018-04-11T10:26:51.120Z,97173.55
2018-04-11T10:29:19.388Z,97174.31
2018-04-11T10:31:47.746Z,97173.08
2018-04-11T10:34:16.016Z,97172.60
2018-04-11T10:36:45.066Z,97169.64
2018-04-11T10:39:13.345Z,97174.95
2018-04-11T10:41:41.623Z,97180.55
2018-04-11T10:44:09.939Z,97176.59
2018-04-11T10:46:38.217Z,97176.42
2018-04-11T10:49:07.261Z,97180.00
2018-04-11T10:51:35.524Z,97176.78
2018-04-11T10:54:03.856Z,97176.00
2018-04-11T10:56:32.258Z,97178.37
2018-04-11T10:59:00.610Z,97177.39
2018-04-11T11:01:28.930Z,97177.19
2018-04-11T11:03:57.275Z,97177.15
2018-04-11T11:06:25.607Z,97179.10
2018-04-11T11:08:53.986Z,97184.54
2018-04-11T11:11:22.366Z,97182.48
2018-04-11T11:13:51.447Z,97180.84
2018-04-11T11:16:19.764Z,97176.98
2018-04-11T11:18:48.078Z,97177.45
2018-04-11T11:21:16.339Z,97180.77
2018-04-11T11:23:44.655Z,97181.72
2018-04-11T11:26:12.930Z,97172.20
2018-04-11T11:28:41.223Z,97185.99
2018-04-11T11:31:09.492Z,97177.02
2018-04-11T11:33:37.799Z,97173.71
2018-04-11T11:36:06.067Z,97175.02
2018-04-11T11:38:34.347Z,97172.15
2018-04-11T11:41:02.632Z,97171.02
2018-04-11T11:43:31.670Z,97169.75
2018-04-11T11:46:00.019Z,97168.00
2018-04-11T11:48:28.282Z,97166.45
2018-04-11T11:50:57.335Z,97161.22
2018-04-11T11:53:25.654Z,97161.53
2018-04-11T11:55:54.704Z,97161.40
2018-04-11T11:58:22.967Z,97159.13
2018-04-11T12:00:51.260Z,97157.73
2018-04-11T12:03:19.523Z,97156.36
2018-04-11T12:05:47.803Z,97158.16
2018-04-11T12:08:16.091Z,97160.02
2018-04-11T12:10:44.374Z,97155.80
2018-04-11T12:13:12.631Z,97151.96
2018-04-11T12:15:40.915Z,97146.00
2018-04-11T12:18:09.187Z,97145.23
2018-04-11T12:20:37.493Z,97144.58
2018-04-11T12:23:05.786Z,97142.58
2018-04-11T12:25:34.836Z,97140.58
2018-04-11T12:28:03.093Z,97136.39
2018-04-11T12:30:31.399Z,97143.02
2018-04-11T12:32:59.671Z,97143.65
2018-04-11T12:35:27.948Z,97140.20
2018-04-11T12:37:56.235Z,97137.97
2018-04-11T12:40:24.491Z,97140.52
2018-04-11T12:42:52.805Z,97139.05
2018-04-11T12:45:21.063Z,97142.52
2018-04-11T12:47:49.390Z,97138.94
2018-04-11T12:50:17.662Z,97132.14
2018-04-11T12:52:45.953Z,97133.06
2018-04-11T12:55:14.206Z,97123.87
2018-04-11T12:57:43.266Z,97123.67
2018-04-11T13:00:11.532Z,97119.42
2018-04-11T13:02:39.816Z,97112.31
2018-04-11T13:05:08.138Z,97104.56
2018-04-11T13:07:37.186Z,97102.23
2018-04-11T13:10:05.472Z,97100.77
2018-04-11T13:12:33.761Z,97094.91
2018-04-11T13:15:02.046Z,97091.95
2018-04-11T13:17:30.323Z,97085.68
2018-04-11T13:19:59.355Z,97081.17
2018-04-11T13:22:27.638Z,97076.37
2018-04-11T13:24:55.900Z,97074.22
2018-04-11T13:27:24.184Z,97081.36
2018-04-11T13:29:52.453Z,97083.84
2018-04-11T13:32:20.737Z,97074.98
2018-04-11T13:34:48.995Z,97075.07
2018-04-11T13:37:17.281Z,97078.22
2018-04-11T13:39:45.620Z,97073.72
2018-04-11T13:42:14.664Z,97070.59
2018-04-11T13:44:42.938Z,97072.38
2018-04-11T13:47:12.023Z,97073.83
2018-04-11T13:49:40.337Z,97068.28
2018-04-11T13:52:08.583Z,97068.50
2018-04-11T13:54:36.901Z,97061.48
2018-04-11T13:57:05.167Z,97056.41
2018-04-11T13:59:33.464Z,97058.03
2018-04-11T14:02:01.741Z,97058.29
2018-04-11T14:04:30.030Z,97059.53
2018-04-11T14:06:59.059Z,97057.69
2018-04-11T14:09:27.354Z,97063.09
2018-04-11T14:11:55.618Z,97067.35
2018-04-11T14:14:23.926Z,97062.28
2018-04-11T14:16:52.166Z,97058.84
2018-04-11T14:19:20.459Z,97063.33
2018-04-11T14:21:48.743Z,97062.77
2018-04-11T14:24:17.023Z,97057.52
2018-04-11T14:26:45.293Z,97058.48
2018-04-11T14:29:13.571Z,97061.88
2018-04-11T14:31:41.848Z,97063.48
2018-04-11T14:34:10.128Z,97062.39
2018-04-11T14:36:38.395Z,97050.50
2018-04-11T14:39:06.679Z,97056.69
2018-04-11T14:41:34.943Z,97053.44
2018-04-11T14:44:03.230Z,97054.95
2018-04-11T14:46:31.503Z,97055.83
2018-04-11T14:48:59.766Z,97051.75
2018-04-11T14:51:28.051Z,97046.94
2018-04-11T14:53:56.316Z,97047.29
2018-04-11T14:56:24.595Z,97052.71
2018-04-11T14:58:52.901Z,97044.02
2018-04-11T15:01:21.180Z,97037.84
2018-04-11T15:03:49.447Z,97039.13
2018-04-11T15:06:17.728Z,97039.10
2018-04-11T15:08:45.994Z,97037.91
2018-04-11T15:11:14.275Z,97042.49
2018-04-11T15:13:42.552Z,97043.87
2018-04-11T15:16:10.831Z,97040.40
2018-04-11T15:18:39.102Z,97045.20
2018-04-11T15:21:07.476Z,97046.79
2018-04-11T15:23:35.735Z,97047.85
2018-04-11T15:26:04.026Z,97043.66
2018-04-11T15:28:32.291Z,97045.85
2018-04-11T15:31:00.608Z,97041.48
2018-04-11T15:33:28.876Z,97038.95
2018-04-11T15:35:57.182Z,97044.92
2018-04-11T15:38:25.460Z,97040.02
2018-04-11T15:40:53.747Z,97040.25
2018-04-11T15:43:22.008Z,97046.72
2018-04-11T15:45:51.075Z,97045.22
2018-04-11T15:48:19.344Z,97045.14
2018-04-11T15:50:47.639Z,97040.97
2018-04-11T15:53:15.916Z,97033.48
2018-04-11T15:55:44.959Z,97043.90
2018-04-11T15:58:13.235Z,97043.80
2018-04-11T16:00:41.490Z,97046.89
2018-04-11T16:03:09.783Z,97050.87
2018-04-11T16:05:38.047Z,97044.95
2018-04-11T16:08:06.338Z,97043.16
2018-04-11T16:10:34.606Z,97044.05
2018-04-11T16:15:37.406Z,97043.98
2018-04-11T16:18:05.699Z,97042.56
2018-04-11T16:20:33.976Z,97040.02
2018-04-11T16:23:02.292Z,97039.35
2018-04-11T16:25:30.591Z,97030.63
2018-04-11T16:27:59.750Z,97031.52
2018-04-11T16:30:28.021Z,97032.69
2018-04-11T16:32:56.323Z,97035.03
2018-04-11T16:35:25.353Z,97027.82
2018-04-11T16:37:53.639Z,97032.85
2018-04-11T16:40:21.927Z,97021.97
2018-04-11T16:42:50.206Z,97022.23
2018-04-11T16:45:18.472Z,97020.09
2018-04-11T16:47:46.756Z,97017.96
2018-04-11T16:50:15.016Z,97020.73
2018-04-11T16:52:43.296Z,97020.80
2018-04-11T16:55:11.557Z,97031.93
2018-04-11T16:57:39.849Z,97029.44
2018-04-11T17:00:08.104Z,97029.28
2018-04-11T17:02:36.383Z,97020.78
2018-04-11T17:05:04.671Z,97016.59
2018-04-11T17:07:32.931Z,97018.51
2018-04-11T17:10:01.231Z,97023.17
2018-04-11T17:12:29.505Z,97018.71
2018-04-11T17:14:57.799Z,97013.81
2018-04-11T17:17:26.824Z,97012.16
2018-04-11T17:19:55.171Z,97013.39
2018-04-11T17:22:41.401Z,97014.22
2018-04-11T17:25:27.591Z,97017.33
2018-04-11T17:28:14.522Z,97024.72
2018-04-11T17:30:57.773Z,97011.81
2018-04-11T17:33:26.083Z,97014.16
2018-04-11T17:35:54.453Z,97015.32
2018-04-11T17:38:23.060Z,97017.62
2018-04-11T17:40:52.623Z,97013.77
2018-04-11T17:43:22.251Z,97012.41
2018-04-11T17:45:52.103Z,97014.73
2018-04-11T17:48:21.964Z,97014.66
2018-04-11T17:50:51.948Z,97010.27
2018-04-11T17:53:21.195Z,97011.03
2018-04-11T17:55:50.414Z,97011.03
2018-04-11T17:58:19.696Z,97007.91
2018-04-11T18:00:49.109Z,97016.61
2018-04-11T18:03:18.396Z,97015.77
2018-04-11T18:05:48.510Z,97015.09
2018-04-11T18:08:18.329Z,97024.38
2018-04-11T18:10:48.186Z,97021.08
2018-04-11T18:13:18.044Z,97015.91
2018-04-11T18:15:47.466Z,97022.00
2018-04-11T18:18:16.809Z,97021.80
2018-04-11T18:20:46.386Z,97018.91
2018-04-11T18:23:16.224Z,97022.58
2018-04-11T18:25:46.811Z,97027.87
2018-04-11T18:28:16.961Z,97024.48
2018-04-11T18:30:47.109Z,97021.58
2018-04-11T18:33:17.922Z,97024.90
2018-04-11T18:35:49.573Z,97024.38
2018-04-11T18:38:19.427Z,97028.37
2018-04-11T18:40:50.018Z,97034.83
2018-04-11T18:43:19.905Z,97040.84
2018-04-11T18:45:50.112Z,97047.28
2018-04-11T18:48:19.387Z,97044.47
2018-04-11T18:50:49.639Z,97050.52
2018-04-11T18:53:18.996Z,97046.73
2018-04-11T18:55:48.834Z,97046.38
2018-04-11T18:58:18.576Z,97055.98
2018-04-11T19:00:49.055Z,97048.92
2018-04-11T19:03:18.573Z,97051.47
2018-04-11T19:05:48.987Z,97049.69
2018-04-11T19:08:19.163Z,97051.92
2018-04-11T19:10:48.634Z,97052.89
2018-04-11T19:13:18.344Z,97052.02
2018-04-11T19:15:48.134Z,97053.50
2018-04-11T19:18:17.731Z,97052.72
2018-04-11T19:20:48.553Z,97043.87
2018-04-11T19:23:18.035Z,97045.82
2018-04-11T19:25:49.259Z,97047.28
2018-04-11T19:28:19.476Z,97048.29
2018-04-11T19:30:49.714Z,97048.22
2018-04-11T19:33:19.371Z,97048.16
2018-04-11T19:35:48.777Z,97048.02
2018-04-11T19:38:18.982Z,97049.02
2018-04-11T19:40:49.088Z,97060.45
2018-04-11T19:43:18.636Z,97060.59
2018-04-11T19:45:49.308Z,97062.75
2018-04-11T19:48:18.854Z,97062.48
2018-04-11T19:50:49.344Z,97061.04
2018-04-11T19:53:18.800Z,97061.19
2018-04-11T19:55:49.386Z,97059.45
2018-04-11T19:58:18.885Z,97055.20
2018-04-11T20:00:49.146Z,97050.68
2018-04-11T20:03:18.695Z,97054.16
2018-04-11T20:05:49.964Z,97048.67
2018-04-11T20:08:19.411Z,97049.63
2018-04-11T20:10:49.674Z,97051.91
2018-04-11T20:13:19.285Z,97051.67
2018-04-11T20:15:49.583Z,97054.60
2018-04-11T20:18:19.115Z,97052.39
2018-04-11T20:20:48.947Z,97051.13
2018-04-11T20:23:18.483Z,97050.18
2018-04-11T20:25:49.749Z,97051.88
2018-04-11T20:28:19.478Z,97041.50
2018-04-11T20:30:49.749Z,97043.31
2018-04-11T20:33:19.178Z,97044.83
2018-04-11T20:35:50.654Z,97040.70
2018-04-11T20:38:20.204Z,97043.59
2018-04-11T20:40:49.495Z,97033.80
2018-04-11T20:43:18.861Z,97030.64
2018-04-11T20:45:49.276Z,97021.65
2018-04-11T20:48:18.617Z,97016.73
2018-04-11T20:50:49.971Z,97008.27
2018-04-11T20:53:19.376Z,97012.89
2018-04-11T20:55:49.286Z,97005.42
2018-04-11T20:58:18.551Z,97004.90
2018-04-11T21:00:47.919Z,96998.76
2018-04-11T21:03:17.181Z,96992.50
2018-04-11T21:05:46.501Z,96986.69
2018-04-11T21:08:15.843Z,96984.14
2018-04-11T21:10:45.959Z,96988.09
2018-04-11T21:13:15.941Z,96984.61
2018-04-11T21:15:45.161Z,96983.04
2018-04-11T21:18:13.948Z,96988.88
2018-04-11T21:20:42.584Z,96979.37
2018-04-11T21:23:11.697Z,96980.97
2018-04-11T21:25:40.105Z,96975.73
2018-04-11T21:28:08.474Z,96968.70
2018-04-11T21:30:36.833Z,96949.43
2018-04-11T21:33:05.895Z,96962.62
2018-04-11T21:35:34.157Z,96959.44
2018-04-11T21:38:02.470Z,96961.34
2018-04-11T21:40:30.743Z,96961.81
2018-04-11T21:42:59.028Z,96962.50
2018-04-11T21:45:27.292Z,96960.74
2018-04-11T21:47:55.567Z,96965.91
2018-04-11T21:50:23.836Z,96962.01
2018-04-11T21:52:52.112Z,96958.40
2018-04-11T21:55:20.383Z,96956.92
2018-04-11T21:57:48.664Z,96955.30
2018-04-11T22:00:16.946Z,96955.58
2018-04-11T22:02:45.259Z,96953.58
2018-04-11T22:05:14.287Z,96953.13
2018-04-11T22:07:42.621Z,96950.27
2018-04-11T22:10:10.988Z,96952.72
2018-04-11T22:12:39.286Z,96947.75
2018-04-11T22:15:08.385Z,96947.26
2018-04-11T22:17:36.646Z,96945.29
2018-04-11T22:20:04.920Z,96940.11
2018-04-11T22:22:33.277Z,96941.03
2018-04-11T22:25:01.544Z,96941.05
2018-04-11T22:27:29.817Z,96936.27
2018-04-11T22:29:58.088Z,96930.09
2018-04-11T22:32:26.358Z,96932.16
2018-04-11T22:34:54.731Z,96929.11
2018-04-11T22:37:23.089Z,96931.55
2018-04-11T22:39:51.471Z,96935.05
2018-04-11T22:42:19.879Z,96926.06
2018-04-11T22:44:48.210Z,96928.45
2018-04-11T22:47:16.576Z,96924.36
2018-04-11T22:49:45.698Z,96926.18
2018-04-11T22:52:14.053Z,96932.91
2018-04-11T22:54:43.162Z,96930.27
2018-04-11T22:57:11.508Z,96927.41
2018-04-11T22:59:39.869Z,96923.38
2018-04-11T23:02:08.222Z,96915.17
2018-04-11T23:04:36.584Z,96917.23
2018-04-11T23:07:04.906Z,96919.67
2018-04-11T23:09:33.271Z,96916.41
2018-04-11T23:12:01.672Z,96915.52
2018-04-11T23:14:30.047Z,96915.94
2018-04-11T23:16:58.392Z,96913.92
2018-04-11T23:19:26.761Z,96909.37
2018-04-11T23:21:55.095Z,96910.89
2018-04-11T23:24:24.229Z,96904.84
2018-04-11T23:26:52.579Z,96905.55
2018-04-11T23:29:21.727Z,96896.47
2018-04-11T23:31:50.088Z,96900.13
2018-04-11T23:34:18.396Z,96894.31
2018-04-11T23:36:46.687Z,96895.70
2018-04-11T23:39:14.982Z,96890.28
2018-04-11T23:41:43.258Z,96885.39
2018-04-11T23:44:11.540Z,96883.69
2018-04-11T23:46:39.841Z,96871.97
2018-04-11T23:49:08.134Z,96865.67
2018-04-11T23:51:36.410Z,96866.09
2018-04-11T23:54:04.675Z,96867.42
2018-04-11T23:56:32.976Z,96863.41
2018-04-11T23:59:01.271Z,96864.39
